ACT        NSW        VIC        QLD        SA        WA        TAS        NT        INFO        CALC            by VK5ZD

Past Date/Time: (dd/mm/yyyy hh:mm or blank for current data)    

  Atmospheric Gas Attenuation - ITU Rec 676-11   --------------- dB/100km ---------------
WA Stations Date Time Temp RH % AH g/m3 Dew Point Wind Direction Speed kph Gust kph Barometer mB Rainfall Since 9am 24GHz 47GHz 76GHz 122GHz 134GHz 241GHz
Albany Airport 08/05 22:00 12.1 82 8.79 9.1 17 22 1031.5 0 20.1 27.4 42.3 110.8 104.7 360.2
Badgingarra 08/05 22:00 15.2 50 6.49 4.9 26 35 1013.1 0 15.0 22.3 31.1 81.3 70.3 240.4
Barimunya 08/05 22:00 18.6 29 4.62 0.2 22 32 1020.9 0 11.0 19.2 23.9 61.8 47.2 159.2
Barrow Island 08/05 22:00 24 56 12.18 14.7 28 32 1016.5 0 26.6 28.6 48.5 127.9 130.6 452.2
Bedout Island 08/05 22:00 25.8 42 10.11 11.9 48 56 1016.3 0 22.2 24.9 39.7 104.4 102.2 353.3
Bickley 08/05 22:00 13.8 53 6.32 4.4 30 46 1013.1 0 14.7 22.4 31.0 81.0 69.5 237.3
Boolgeeda 08/05 22:00 20.4 23 4.07 -1.4 19 24 1018.6 0 9.8 18.0 21.6 55.8 40.4 135.5
Bridgetown 08/05 22:00 10.9 69 6.86 5.4 6 9 1029.1 0 16.0 24.5 34.9 91.1 80.1 273.8
Broome 08/05 22:00 23.4 39 8.2 8.7 20 30 1016.1 0 18.3 22.8 34.0 89.2 82.7 284.7
Bunbury 08/05 22:00 14.5 58 7.21 6.3 9 13 1028 0 16.6 24.1 34.7 90.5 80.8 276.8
Busselton Airport 08/05 22:00 12.4 67 7.32 6.5 13 15 1027.8 0 16.9 24.8 36.0 94.1 84.4 289.1
Cape Leeuwin 08/05 22:00 17.2 63 9.23 10.1 28 37 1027.8 0 20.7 26.5 41.2 108.1 103.5 356.5
Cape Naturaliste 08/05 22:00 16.8 68 9.72 10.9 28 35 1027.1 0 21.8 27.3 43.4 113.8 110.4 380.7
Carnarvon 08/05 22:00 21.6 31 5.88 3.8 17 20 1019.3 0 13.5 20.2 27.0 70.3 58.7 200.0
Christmas Creek 08/05 22:00 20 25 4.32 -0.6 15 22 1021.2 0 10.3 18.5 22.6 58.3 43.3 145.6
Christmas Island 08/05 22:00 26.1 88 21.54 24 17 28 1011.1 0 46.3 44.3 88.2 233.4 261.0 906.7
Cocos Island 08/05 22:00 28.4 92 25.58 27 17 26 1010.2 0 54.6 51.2 105.7 280.1 319.0 1108.4
Collie East 08/05 22:00 14 56 6.75 5.4 7 15 1013.1 0 15.6 22.9 32.5 85.1 74.6 255.1
Coondewanna 08/05 22:00 17.5 29 4.32 -0.7 13 20 1020.8 0 10.4 19.0 23.2 60.1 44.6 149.9
Cunderdin Airport 08/05 22:00 12.2 57 6.15 3.9 17 22 1028.7 0 14.4 23.0 31.6 82.4 69.8 237.9
Curtin 08/05 22:00 20 41 7.08 6.4 15 20 1014.5 0 16.1 22.0 31.4 82.2 73.1 250.4
Dalwallinu 08/05 22:00 13.4 49 5.7 2.9 15 20 1026.9 0 13.4 22.0 29.4 76.6 63.2 214.9
Donnybrook 08/05 09:00 13 88 9.98 11.1 28 1013.1 0 22.6 28.4 45.9 120.8 118.3 408.0
Dwellingup 08/05 22:00 14.2 55 6.72 5.3 26 41 1027.8 0 15.6 23.4 32.9 85.9 75.0 256.3
Eliwana Airport 08/05 22:00 21.3 25 4.66 0.5 15 20 1013.1 0.2 11.0 18.4 23.0 59.7 45.7 154.5
Esperance 08/05 22:00 13.3 74 8.55 8.8 9 15 1034.1 0 19.5 26.8 40.8 106.8 100.1 344.1
Esperance Airport 08/05 22:00 12.4 79 8.63 8.9 13 17 1033.9 0.2 19.7 27.1 41.6 108.9 102.3 351.8
Eucla 08/05 22:00 13.6 91 10.71 12.2 7 11 1032.6 0.4 24.1 30.3 49.7 130.6 129.6 447.5
Fitzroy Crossing 08/05 22:00 20.9 39 7.1 6.4 1015.7 0 16.1 21.9 31.2 81.6 72.5 248.7
Forrest 08/05 22:00 13 83 9.41 10.2 13 17 1032.2 0 21.3 28.2 44.4 116.5 112.1 386.1
Fortescue Dave Forrest 08/05 22:00 18 30 4.61 0.2 13 19 1020.8 0 11.0 19.3 24.0 62.2 47.4 159.9
Garden Island 08/05 22:00 16.9 56 8.05 8.1 17 24 1026.9 0 18.3 24.7 36.8 96.2 88.7 304.7
Geraldton Airport 08/05 22:00 16.5 44 6.18 4.2 17 19 1023.5 0 14.3 21.9 29.9 77.9 66.2 225.8
Gerangamete (Cfa) 08/05 23:50 10.6 99 9.66 10.4 6 6 1013.1 0 22.0 28.7 46.0 120.9 117.5 404.8
Giles* 08/05 23:40 12.9 36 4.06 -1.8 19 24 1024.6 0 10.0 19.7 23.8 61.4 44.4 148.7
Gingin Airport 08/05 22:00 16.7 43 6.11 4.1 17 22 1026.7 0 14.2 21.8 29.7 77.4 65.4 223.0
Golden Grove 08/05 22:00 15.9 43 5.82 3.4 15 20 1025.8 0 13.6 21.6 28.9 75.3 62.6 213.1
Gooseberry Hill 08/05 22:00 16 46 6.27 4.4 30 41 1013.1 0 14.5 21.8 30.0 78.4 67.1 228.9
Gudai-Darri Mine 08/05 22:00 19 28 4.56 0.1 19 28 1013.1 0 10.9 18.8 23.3 60.5 46.0 155.1
Halls Creek 08/05 23:40 17.6 58 8.7 9.2 11 11 1016.4 0 19.6 25.1 38.5 100.9 95.2 327.9
Hopetoun North 08/05 22:00 12.4 82 8.96 9.4 13 20 1032.3 0 20.4 27.6 42.9 112.4 106.7 367.2
Iron Bridge Mine 08/05 22:00 23.3 21 4.39 -0.2 19 26 1018.7 0 10.4 17.9 21.8 56.5 42.2 142.1
Jacup 08/05 22:00 10.3 79 7.57 6.8 24 30 1031.8 0 17.5 25.9 38.2 99.8 90.4 309.7
Jandakot 08/05 22:00 18 40 6.14 4.2 20 32 1026.7 0 14.2 21.6 29.4 76.4 64.7 220.7
Kalgoorlie-Boulder 08/05 22:00 12.8 57 6.39 4.5 22 32 1030.9 0 14.9 23.3 32.4 84.4 72.4 247.0
Kalumburu 08/05 23:40 20.2 59 10.32 11.9 6 6 1013.7 0 22.9 26.8 43.3 113.8 112.2 387.6
Karijini North 08/05 22:00 21 22 4.03 -1.5 20 30 1019.9 0 9.7 17.9 21.4 55.1 39.7 133.3
Karratha 08/05 22:00 23.9 51 11.03 13.2 15 17 1017.2 0 24.2 26.9 44.2 116.2 116.1 401.8
Katanning Rs 08/05 22:00 11.1 77 7.76 7.2 17 24 1030.8 0 17.9 26.0 38.5 100.7 91.9 315.2
Koolan Island / Koolan Central 08/05 22:00 25.1 34 7.87 8.1 32 41 1013.1 0 17.5 21.9 32.1 84.1 77.1 265.3
Kununurra Airport 08/05 23:40 23 49 10.07 11.7 11 13 1014.5 0 22.2 25.6 40.9 107.5 105.2 363.6
Lake Grace 08/05 22:00 12 62 6.61 5 17 24 1030.7 0 15.4 23.9 33.5 87.4 75.9 259.2
Lancelin (Defence) 08/05 22:00 16.8 50 7.15 6.3 15 24 1024.9 0 16.4 23.3 33.4 87.1 77.6 265.7
Laverton 08/05 22:00 12.4 60 6.56 4.9 17 20 1029.1 0 15.3 23.6 33.1 86.4 74.8 255.4
Learmonth 08/05 22:00 18.5 70 11.07 12.9 9 11 1018 0 24.6 28.7 47.5 124.9 125.1 432.4
Legendre Island 08/05 22:00 26.4 47 11.7 14.2 32 37 1016.8 0 25.4 27.2 45.3 119.3 120.7 417.9
Leinster 08/05 22:00 14.1 43 5.22 1.7 20 28 1026.3 0 12.4 21.1 27.5 71.3 57.0 193.1
Leonora Airport 08/05 22:00 13.5 50 5.85 3.3 13 17 1028.7 0 13.8 22.3 30.0 78.1 65.0 221.3
Lombadina 08/05 22:00 23.6 40 8.51 9.2 15 22 1014.4 0 18.9 23.1 35.0 91.7 86.0 296.1
Mandora 08/05 22:00 18.7 36 5.76 3.3 9 13 1017.4 0 13.4 20.6 27.5 71.5 59.4 202.1
Mandurah 08/05 22:00 15.9 55 7.45 6.9 6 7 1027 0 17.0 24.0 34.9 91.3 82.3 282.2
Manjimup 08/05 22:00 12.3 63 6.84 5.5 13 24 1029 0 15.9 24.1 34.2 89.3 78.4 268.1
Marble Bar 08/05 22:00 19.9 26 4.47 -0.1 9 11 1019.5 0 10.6 18.7 23.0 59.5 44.8 151.0
Mardie 08/05 22:00 23.1 46 9.51 10.9 7 7 1017.1 0 21.1 24.8 38.9 102.1 98.5 340.1
Meekatharra 08/05 22:00 16.6 40 5.65 3 22 30 1024.2 0 13.2 21.1 28.1 72.9 60.0 204.1
Millendon (Swan Valley) 08/05 22:00 17.1 43 6.26 4.4 4 9 1026.5 0 14.5 21.9 30.1 78.4 66.8 228.0
Morawa Airport 08/05 22:00 17 42 6.08 4 17 28 1025.5 0 14.1 21.7 29.5 76.7 64.7 220.7
Mount Keith 08/05 22:00 13.4 42 4.88 0.8 15 20 1026.5 0 11.7 20.8 26.5 68.7 53.5 180.9
Mount Magnet Airport 08/05 22:00 16.4 39 5.44 2.4 19 26 1025.4 0 12.8 20.9 27.4 71.3 57.8 196.4
Munglinup West 08/05 22:00 9.9 86 8.03 7.7 15 19 1032.6 0 18.5 26.8 40.3 105.5 97.2 333.5
Murchison 08/05 09:00 21 61 11.17 13.2 13 1014.2 0 24.7 27.9 46.2 121.7 122.0 422.1
Newdegate 08/05 22:00 8.3 75 6.32 4.1 11 13 1030.9 0 14.9 24.4 34.0 88.5 75.7 258.1
Newman Airport 08/05 22:00 14.4 37 4.57 -0.1 11 13 1021.7 0 11.0 20.0 25.0 64.7 49.1 165.6
Norseman Airport 08/05 22:00 9.7 69 6.36 4.3 9 13 1032.2 0 15.0 24.2 33.6 87.5 75.0 255.7
North Island 08/05 22:00 22 54 10.48 12.3 24 30 1022.2 0 23.1 26.8 43.3 113.9 112.4 388.5
Onslow Airport 08/05 22:00 20.9 75 13.66 16.3 11 11 1018.1 0 29.9 32.3 56.8 149.9 156.6 542.6
Paraburdoo 08/05 22:00 21.1 22 4.05 -1.4 20 28 1019.6 0 9.7 17.9 21.4 55.2 39.9 133.8
Pearce 08/05 22:00 18.8 32 5.15 1.8 13 22 1026.1 0 12.1 20.0 25.7 66.7 53.0 179.7
Perth 08/05 22:00 18.3 40 6.25 4.5 13 22 1026.7 0 14.4 21.6 29.6 77.2 65.7 224.3
Perth Airport 08/05 22:00 18 40 6.14 4.2 19 20 1026.6 0 14.2 21.6 29.4 76.4 64.7 220.7
Pingelly 08/05 09:00 14.1 75 9.1 9.7 9 1013.1 0 20.6 26.6 41.7 109.4 104.6 360.4
Port Hedland 08/05 22:00 22 26 5.05 1.6 17 22 1017.5 0 11.8 18.9 24.2 62.7 49.5 168.0
Portable Btsa (Dfes) 08/05 21:50 21.5 25 4.71 0.8 13 13 1013.1 0 11.1 18.5 23.1 59.9 46.1 155.9
Portable Btsb (Dfes) 08/05 21:50 13.5 49 5.73 3 9 11 1013.1 0 13.5 21.6 29.0 75.6 62.7 213.3
Portable Btsd (Dfes) 08/05 21:50 11.7 58 6.07 3.7 22 26 1013.1 0 14.3 22.5 30.9 80.7 68.3 232.8
Portable Btsf (Dfes) 08/05 21:00 16.4 35 4.88 1 28 33 1013.1 0 11.6 19.7 25.1 65.2 51.0 172.3
Portable Btsh (Dfes) 08/05 21:50 13.9 76 9.11 9.8 6 7 1013.1 0 20.7 26.7 41.8 109.8 105.1 361.8
Portable Btsj (Dfes) 08/05 21:50 15.3 57 7.44 6.9 0 2 1013.1 0 17.1 23.7 34.6 90.6 81.8 280.6
Portable Btsk (Dfes) 08/05 21:50 20.2 39 6.82 5.9 4 6 1013.1 0 15.5 21.5 30.4 79.5 69.8 239.1
Portable Btsl (Dfes) 08/05 21:50 14.7 69 8.69 9.1 17 24 1013.1 0 19.7 25.8 39.7 104.2 98.4 338.7
Portable Btsm (Dfes) 08/05 21:50 16.4 34 4.75 0.7 4 6 1013.1 0 11.3 19.5 24.7 64.1 49.5 167.3
Portable Btsn (Dfes) 08/05 21:50 14.9 39 4.97 1.3 11 13 1013.1 0 11.8 20.2 25.9 67.3 52.9 179.1
Portable Btso (Dfes) 08/05 21:50 13.1 59 6.73 5.4 2 4 1013.1 0 15.6 23.1 32.8 85.8 75.2 257.1
Red Rocks Point 08/05 22:00 16 74 10.08 11.4 28 33 1033.1 0 22.6 28.4 45.6 119.6 117.0 403.6
Rocky Gully South 08/05 22:00 12 77 8.21 8.1 22 33 1013.1 0 18.8 25.8 39.1 102.6 95.5 328.0
Roebourne Airport 08/05 22:00 21.7 63 12.02 14.4 11 11 1017.9 0 26.4 29.2 49.4 130.1 132.5 458.7
Rottnest Island 08/05 22:00 18.8 47 7.57 7.3 20 30 1026.4 0 17.2 23.4 34.1 89.2 80.7 277.1
Salmon Gums Rs 08/05 22:00 13.2 79 9.07 9.6 11 17 1013.1 0 20.6 26.8 42.0 110.4 105.5 363.1
Shannon 08/05 22:00 12.1 80 8.58 8.8 15 22 1013.1 0 19.6 26.4 40.6 106.5 100.3 344.9
Shark Bay Airport 08/05 22:00 19.9 46 7.9 7.9 19 22 1019.9 0 17.8 23.4 34.6 90.6 83.1 285.6
Solomon Airport 08/05 22:00 18.2 25 3.89 -2.1 7 13 1018.8 0 9.5 18.2 21.6 55.8 39.6 132.5
Southern Cross Airport 08/05 22:00 13.1 54 6.16 4 15 22 1029.8 0 14.4 22.9 31.4 81.7 69.2 235.9
Swanbourne 08/05 22:00 18.3 51 7.97 8 17 32 1013.1 0 18.0 23.7 35.3 92.4 85.2 292.7
Telfer 08/05 22:00 16.6 35 4.94 1.1 17 20 1019.8 0 11.7 20.0 25.5 66.1 51.8 175.3
Thevenard Island 08/05 22:00 26 45 10.96 13.2 22 28 1017.5 0 23.9 26.2 42.8 112.5 112.3 388.5
Troughton Island 08/05 23:40 27.4 50 13.16 16.1 32 37 1013.3 0 28.4 29.0 50.1 132.2 137.0 475.1
Truscott 08/05 23:40 22.8 50 10.16 11.8 7 9 1013 0 22.4 25.7 41.3 108.5 106.5 368.0
Walpole North 08/05 22:00 12.7 80 8.91 9.3 15 22 1030 0 20.3 27.4 42.4 111.1 105.4 362.7
Wandering 08/05 22:00 14 55 6.63 5.1 6 13 1013.1 0 15.4 22.8 32.1 83.9 73.1 250.0
Warburton 08/05 23:40 14 37 4.46 -0.4 17 24 1026.1 0 10.8 20.1 24.9 64.3 48.3 162.7
West Angelas 08/05 22:00 15.8 33 4.44 -0.4 11 15 1020 0 10.7 19.5 24.1 62.3 46.8 157.5
West Musgrave Airport 08/05 22:00 13.3 38 4.39 -0.7 13 19 1013.1 0 10.7 19.7 24.4 63.3 47.4 159.4
Wiluna Airport 08/05 22:00 14.1 42 5.1 1.4 13 17 1025.5 0 12.1 20.9 27.0 70.1 55.6 188.1
Witchcliffe West 08/05 22:00 14 74 8.93 9.4 15 20 1027.8 0 20.3 26.9 41.7 109.3 103.8 357.1
Wyndham Airport 08/05 23:40 21.2 49 9.08 10.1 7 7 1014.1 0 20.2 24.6 38.1 100.0 95.4 328.9
Yampi Sound (Defence) 08/05 22:00 17.1 79 11.5 13.4 2 2 1018 0 25.6 29.9 50.2 132.0 133.3 461.1

Last Refresh: 08-May-2026 23:43:36

Bureau of Meteorology